createdAt,value
2022-08-02T00:00:33.294Z,101561.53
2022-08-02T00:03:02.067Z,101533.34
2022-08-02T00:05:28.556Z,101503.59
2022-08-02T00:07:54.934Z,101574.47
2022-08-02T00:10:21.512Z,101441.63
2022-08-02T00:12:47.969Z,101545.19
2022-08-02T00:15:15.917Z,101506.31
2022-08-02T00:17:42.988Z,101582.34
2022-08-02T00:20:10.537Z,101532.69
2022-08-02T00:22:36.911Z,101532.69
2022-08-02T00:25:04.817Z,101570.06
2022-08-02T00:27:31.225Z,101493.25
2022-08-02T00:29:57.746Z,101570.06
2022-08-02T00:32:24.361Z,101570.91
2022-08-02T00:34:51.106Z,101566.56
2022-08-02T00:37:18.037Z,101535.81
2022-08-02T00:39:44.457Z,101566.56
2022-08-02T00:42:11.462Z,101441.88
2022-08-02T00:44:38.173Z,101521.84
2022-08-02T00:47:04.842Z,101521.00
2022-08-02T00:49:32.747Z,101439.09
2022-08-02T00:52:00.452Z,101413.28
2022-08-02T00:54:26.992Z,101496.19
2022-08-02T00:56:53.413Z,101485.22
2022-08-02T00:59:19.865Z,101500.03
2022-08-02T01:01:56.160Z,101548.84
2022-08-02T01:04:29.881Z,101538.75
2022-08-02T01:06:59.541Z,101541.47
2022-08-02T01:09:25.958Z,101486.44
2022-08-02T01:11:54.151Z,101499.91
2022-08-02T01:14:24.631Z,101522.81
2022-08-02T01:17:18.703Z,101531.06
2022-08-02T01:19:56.205Z,101541.28
2022-08-02T01:26:09.856Z,101532.78
2022-08-02T01:28:43.577Z,101475.88
2022-08-02T01:31:26.126Z,101529.81
2022-08-02T01:34:11.339Z,101526.56
2022-08-02T01:36:45.670Z,101450.84
2022-08-02T01:39:26.473Z,101499.50
2022-08-02T01:42:01.343Z,101443.00
2022-08-02T01:44:31.864Z,101490.09
2022-08-02T01:47:06.838Z,101501.16
2022-08-02T01:49:35.657Z,101509.09
2022-08-02T01:52:23.009Z,101456.97
2022-08-02T01:55:01.563Z,101509.28
2022-08-02T01:57:41.934Z,101494.38
2022-08-02T02:00:10.646Z,101505.09
2022-08-02T02:02:42.108Z,101422.16
2022-08-02T02:05:14.629Z,101434.06
2022-08-02T02:07:43.737Z,101441.47
2022-08-02T02:10:14.711Z,101223.94
2022-08-02T02:12:44.174Z,101506.53
2022-08-02T02:15:12.822Z,101261.69
2022-08-02T02:18:11.197Z,101469.91
2022-08-02T02:20:30.656Z,101489.00
2022-08-02T02:22:59.090Z,101342.06
2022-08-02T02:25:36.048Z,101265.25
2022-08-02T02:28:24.464Z,101492.91
2022-08-02T02:30:55.175Z,101472.56
2022-08-02T02:33:26.391Z,101470.34
2022-08-02T02:36:00.010Z,101423.03
2022-08-02T02:38:31.244Z,101477.06
2022-08-02T02:41:01.869Z,101481.31
2022-08-02T02:43:31.019Z,101481.59
2022-08-02T02:45:58.134Z,101430.78
2022-08-02T02:48:26.933Z,101480.28
2022-08-02T02:50:54.430Z,101430.84
2022-08-02T02:53:22.332Z,101425.91
2022-08-02T02:56:02.518Z,101374.84
2022-08-02T02:58:31.156Z,101413.38
2022-08-02T03:01:16.484Z,101419.47
2022-08-02T03:03:44.887Z,101414.06
2022-08-02T03:06:15.103Z,101397.28
2022-08-02T03:08:42.695Z,101396.38
2022-08-02T03:11:10.237Z,101451.00
2022-08-02T03:13:37.775Z,101425.25
2022-08-02T03:16:04.810Z,101429.66
2022-08-02T03:18:36.360Z,101414.25
2022-08-02T03:21:05.399Z,101259.31
2022-08-02T03:23:32.714Z,101458.13
2022-08-02T03:25:59.509Z,101352.97
2022-08-02T03:28:26.034Z,101442.47
2022-08-02T03:30:55.212Z,101399.78
2022-08-02T03:33:22.295Z,101434.63
2022-08-02T03:35:56.687Z,101432.94
2022-08-02T03:38:28.816Z,101443.47
2022-08-02T03:40:57.706Z,101397.06
2022-08-02T03:43:28.893Z,101435.63
2022-08-02T03:45:56.397Z,101391.50
2022-08-02T03:48:34.264Z,101409.03
2022-08-02T03:51:02.303Z,101427.16
2022-08-02T03:53:29.781Z,101438.16
2022-08-02T03:55:56.969Z,101384.47
2022-08-02T03:58:24.570Z,101418.56
2022-08-02T04:00:53.587Z,101429.81
2022-08-02T04:03:20.326Z,101372.22
2022-08-02T04:06:00.823Z,101409.03
2022-08-02T04:08:35.949Z,101431.06
2022-08-02T04:11:22.016Z,101429.81
2022-08-02T04:13:48.435Z,101381.97
2022-08-02T04:16:22.408Z,101420.28
2022-08-02T04:18:56.040Z,101371.47
2022-08-02T04:21:26.784Z,101428.53
2022-08-02T04:24:18.611Z,101376.34
2022-08-02T04:26:48.042Z,101392.94
2022-08-02T04:29:16.984Z,101423.16
2022-08-02T04:31:43.632Z,101444.81
2022-08-02T04:34:15.006Z,101413.69
2022-08-02T04:36:42.921Z,101405.34
2022-08-02T04:39:09.725Z,101430.09
2022-08-02T04:41:46.807Z,101418.34
2022-08-02T04:44:14.505Z,101434.69
2022-08-02T04:46:41.631Z,101427.91
2022-08-02T04:49:08.399Z,101410.25
2022-08-02T04:51:39.539Z,101369.69
2022-08-02T04:54:09.288Z,101407.19
2022-08-02T04:56:39.777Z,101316.97
2022-08-02T04:59:07.181Z,101397.75
2022-08-02T05:01:36.090Z,101420.84
2022-08-02T05:04:02.908Z,101401.78
2022-08-02T05:06:29.380Z,101394.13
2022-08-02T05:08:58.485Z,101394.59
2022-08-02T05:11:34.171Z,101395.41
2022-08-02T05:14:02.420Z,101309.34
2022-08-02T05:16:31.105Z,101334.13
2022-08-02T05:19:02.317Z,101391.44
2022-08-02T05:21:29.594Z,101333.19
2022-08-02T05:23:56.752Z,101383.91
2022-08-02T05:26:23.138Z,101324.44
2022-08-02T05:28:49.834Z,101326.03
2022-08-02T05:31:16.310Z,101334.00
2022-08-02T05:33:42.896Z,101376.50
2022-08-02T05:36:09.611Z,101237.50
2022-08-02T05:38:37.445Z,101366.09
2022-08-02T05:41:05.168Z,101186.00
2022-08-02T05:43:31.665Z,101376.88
2022-08-02T05:45:58.123Z,101329.19
2022-08-02T05:48:30.653Z,101248.03
2022-08-02T05:51:06.435Z,101387.59
2022-08-02T05:53:59.362Z,101356.59
2022-08-02T05:56:33.813Z,101404.84
2022-08-02T05:59:09.745Z,101173.22
2022-08-02T06:01:40.475Z,101359.44
2022-08-02T06:04:17.654Z,101239.59
2022-08-02T06:06:44.569Z,101326.13
2022-08-02T06:09:16.483Z,101316.41
2022-08-02T06:12:02.025Z,101326.78
2022-08-02T06:14:37.610Z,101355.22
2022-08-02T06:17:05.020Z,101361.91
2022-08-02T06:19:46.880Z,101368.84
2022-08-02T06:22:32.745Z,101336.72
2022-08-02T06:25:04.468Z,101299.84
2022-08-02T06:27:31.734Z,101398.31
2022-08-02T06:29:58.657Z,101397.91
2022-08-02T06:32:26.814Z,101353.13
2022-08-02T06:34:53.213Z,101301.34
2022-08-02T06:37:30.946Z,101393.31
2022-08-02T06:40:19.856Z,101388.69
2022-08-02T06:42:58.184Z,101302.81
2022-08-02T06:45:24.583Z,101385.94
2022-08-02T06:47:51.058Z,101355.00
2022-08-02T06:50:20.321Z,101376.97
2022-08-02T06:52:46.894Z,101375.19
2022-08-02T06:55:15.206Z,101375.09
2022-08-02T06:57:44.110Z,101325.53
2022-08-02T07:00:11.246Z,101295.84
2022-08-02T07:02:39.576Z,101358.25
2022-08-02T07:05:06.758Z,101331.53
2022-08-02T07:07:33.746Z,101365.91
2022-08-02T07:10:01.799Z,101110.09
2022-08-02T07:12:33.249Z,101350.84
2022-08-02T07:15:04.820Z,101336.81
2022-08-02T07:17:31.345Z,101286.00
2022-08-02T07:19:58.540Z,101227.22
2022-08-02T07:22:27.965Z,101351.03
2022-08-02T07:24:59.852Z,101297.13
2022-08-02T07:27:27.877Z,101301.97
2022-08-02T07:29:54.803Z,101340.69
2022-08-02T07:32:26.257Z,101344.88
2022-08-02T07:34:57.001Z,101354.19
2022-08-02T07:37:53.607Z,101345.75
2022-08-02T07:40:20.229Z,101328.44
2022-08-02T07:42:49.805Z,101305.31
2022-08-02T07:45:16.209Z,101344.00
2022-08-02T07:47:44.729Z,101261.56
2022-08-02T07:50:12.622Z,101296.28
2022-08-02T07:52:40.370Z,101344.13
2022-08-02T07:55:08.025Z,101328.00
2022-08-02T07:57:34.448Z,101297.19
2022-08-02T08:00:00.846Z,101325.50
2022-08-02T08:02:27.394Z,101333.81
2022-08-02T08:04:53.834Z,101252.94
2022-08-02T08:07:20.225Z,101327.94
2022-08-02T08:12:29.475Z,101262.72
2022-08-02T08:14:55.881Z,101309.47
2022-08-02T08:17:22.792Z,101326.25
2022-08-02T08:19:50.958Z,101204.97
2022-08-02T08:22:21.446Z,101264.16
2022-08-02T08:24:49.720Z,101297.25
2022-08-02T08:27:17.922Z,101315.94
2022-08-02T08:29:44.719Z,101269.63
2022-08-02T08:32:16.179Z,101271.81
2022-08-02T08:34:44.030Z,101268.78
2022-08-02T08:37:18.115Z,101274.31
2022-08-02T08:39:58.111Z,101298.47
2022-08-02T08:42:29.091Z,101277.19
2022-08-02T08:44:57.190Z,101230.16
2022-08-02T08:47:33.930Z,101308.19
2022-08-02T08:50:10.433Z,101244.78
2022-08-02T08:52:49.008Z,101263.16
2022-08-02T08:55:18.705Z,101295.66
2022-08-02T08:57:46.000Z,101302.75
2022-08-02T09:00:13.421Z,101284.41
2022-08-02T09:02:42.602Z,101304.25
2022-08-02T09:05:15.074Z,101260.50
2022-08-02T09:07:42.641Z,101298.19
2022-08-02T09:10:44.286Z,101296.53
2022-08-02T09:13:43.560Z,101293.47
2022-08-02T09:16:12.772Z,101266.72
2022-08-02T09:18:44.660Z,101289.13
2022-08-02T09:21:11.811Z,101307.28
2022-08-02T09:23:40.737Z,101297.84
2022-08-02T09:26:10.042Z,101259.13
2022-08-02T09:28:40.084Z,101284.41
2022-08-02T09:31:14.571Z,101277.47
2022-08-02T09:33:44.347Z,101266.06
2022-08-02T09:36:13.407Z,101266.84
2022-08-02T09:38:41.350Z,101283.47
2022-08-02T09:41:22.829Z,101241.63
2022-08-02T09:44:03.037Z,101276.59
2022-08-02T09:46:36.254Z,101271.00
2022-08-02T09:49:08.513Z,101270.47
2022-08-02T09:51:49.529Z,101265.66
2022-08-02T09:54:23.126Z,101227.94
2022-08-02T09:56:52.798Z,101224.75
2022-08-02T09:59:21.818Z,101269.63
2022-08-02T10:01:51.100Z,101204.47
2022-08-02T10:04:29.822Z,101216.50
2022-08-02T10:06:59.291Z,101267.06
2022-08-02T10:09:28.540Z,101233.38
2022-08-02T10:11:55.472Z,101283.75
2022-08-02T10:14:21.980Z,101288.22
2022-08-02T10:16:50.601Z,101252.09
2022-08-02T10:19:17.029Z,101298.13
2022-08-02T10:21:51.459Z,101244.09
2022-08-02T10:24:21.548Z,101266.34
2022-08-02T10:26:49.348Z,101309.75
2022-08-02T10:29:21.291Z,101299.31
2022-08-02T10:31:53.787Z,101292.38
2022-08-02T10:34:24.062Z,101247.69
2022-08-02T10:37:05.670Z,101298.56
2022-08-02T10:39:49.095Z,101300.47
2022-08-02T10:42:47.351Z,101296.09
2022-08-02T10:45:16.749Z,101277.59
2022-08-02T10:48:06.002Z,101270.84
2022-08-02T10:50:52.840Z,101264.94
2022-08-02T10:53:23.963Z,101272.38
2022-08-02T10:55:53.662Z,101216.94
2022-08-02T10:58:29.373Z,101256.97
2022-08-02T11:00:57.663Z,101292.38
2022-08-02T11:03:40.276Z,101281.94
2022-08-02T11:06:08.479Z,101283.66
2022-08-02T11:08:35.552Z,101271.41
2022-08-02T11:11:17.124Z,101272.78
2022-08-02T11:14:05.416Z,101284.66
2022-08-02T11:16:56.794Z,101267.56
2022-08-02T11:19:27.638Z,101190.94
2022-08-02T11:22:08.078Z,101089.97
2022-08-02T11:24:37.297Z,101270.97
2022-08-02T11:27:09.349Z,101281.34
2022-08-02T11:29:41.204Z,101284.13
2022-08-02T11:32:15.085Z,101289.09
2022-08-02T11:34:43.111Z,101283.47
2022-08-02T11:37:10.193Z,101288.94
2022-08-02T11:39:36.594Z,101230.06
2022-08-02T11:42:03.299Z,101278.63
2022-08-02T11:44:40.161Z,101278.03
2022-08-02T11:47:09.705Z,101302.13
2022-08-02T11:49:38.603Z,101298.50
2022-08-02T11:52:07.115Z,101215.50
2022-08-02T11:54:35.825Z,101225.19
2022-08-02T11:57:21.026Z,101280.13
2022-08-02T11:59:50.093Z,101289.41
2022-08-02T12:02:17.343Z,101290.22
2022-08-02T12:04:52.910Z,101282.84
2022-08-02T12:07:33.558Z,101297.53
2022-08-02T12:10:06.618Z,101306.47
2022-08-02T12:12:33.102Z,101299.72
2022-08-02T12:14:59.500Z,101302.94
2022-08-02T12:17:47.764Z,101274.72
2022-08-02T12:20:14.404Z,101308.03
2022-08-02T12:22:42.101Z,101246.25
2022-08-02T12:25:34.205Z,101305.59
2022-08-02T12:28:17.640Z,101260.56
2022-08-02T12:30:54.235Z,101247.59
2022-08-02T12:33:21.824Z,101239.50
2022-08-02T12:35:51.090Z,101288.44
2022-08-02T12:38:17.557Z,101264.81
2022-08-02T12:40:44.199Z,101276.97
2022-08-02T12:43:18.878Z,101260.25
2022-08-02T12:45:57.310Z,101269.88
2022-08-02T12:48:45.162Z,101304.63
2022-08-02T12:51:55.790Z,101298.59
2022-08-02T12:54:31.112Z,101259.97
2022-08-02T12:56:58.925Z,101262.63
2022-08-02T12:59:38.432Z,101261.13
2022-08-02T13:02:11.586Z,101237.97
2022-08-02T13:04:40.751Z,101262.22
2022-08-02T13:07:08.435Z,101298.72
2022-08-02T13:09:46.730Z,101269.91
2022-08-02T13:12:15.685Z,101278.53
2022-08-02T13:14:42.907Z,101205.81
2022-08-02T13:17:12.242Z,101218.31
2022-08-02T13:19:38.831Z,101267.28
2022-08-02T13:22:06.011Z,101244.50
2022-08-02T13:24:40.842Z,101279.59
2022-08-02T13:27:22.065Z,101234.88
2022-08-02T13:29:50.555Z,101269.91
2022-08-02T13:32:17.634Z,101273.09
2022-08-02T13:34:44.306Z,101205.13
2022-08-02T13:37:10.803Z,101284.16
2022-08-02T13:39:37.326Z,101287.72
2022-08-02T13:42:06.940Z,101239.06
2022-08-02T13:44:34.124Z,101241.53
2022-08-02T13:47:01.748Z,101279.31
2022-08-02T13:49:33.534Z,101277.78
2022-08-02T13:52:14.950Z,101273.38
2022-08-02T13:54:41.637Z,101233.91
2022-08-02T13:57:08.047Z,101283.91
2022-08-02T13:59:56.446Z,101277.47
2022-08-02T14:02:21.245Z,101284.50
2022-08-02T14:04:47.662Z,101273.47
2022-08-02T14:07:14.150Z,101271.38
2022-08-02T14:09:40.576Z,101273.88
2022-08-02T14:12:10.554Z,101259.94
2022-08-02T14:14:37.274Z,101194.97
2022-08-02T14:17:03.746Z,101266.81
2022-08-02T14:19:30.247Z,101236.09
2022-08-02T14:22:11.003Z,101253.88
2022-08-02T14:24:39.316Z,101256.97
2022-08-02T14:27:05.673Z,101205.53
2022-08-02T14:29:32.022Z,101257.19
2022-08-02T14:32:01.111Z,101228.34
2022-08-02T14:34:28.453Z,101264.72
2022-08-02T14:36:57.781Z,101208.47
2022-08-02T14:39:24.190Z,101254.88
2022-08-02T14:41:59.403Z,101265.75
2022-08-02T14:44:28.139Z,101249.88
2022-08-02T14:46:58.308Z,101272.59
2022-08-02T14:49:26.842Z,101267.50
2022-08-02T14:51:59.001Z,101263.81
2022-08-02T14:54:30.514Z,101262.63
2022-08-02T14:57:02.251Z,101226.41
2022-08-02T14:59:29.949Z,101257.19
2022-08-02T15:01:56.412Z,101220.63
2022-08-02T15:04:22.988Z,101229.19
2022-08-02T15:06:49.448Z,101169.44
2022-08-02T15:09:15.955Z,101267.00
2022-08-02T15:11:47.593Z,101244.63
2022-08-02T15:14:16.129Z,101245.94
2022-08-02T15:16:56.598Z,101178.44
2022-08-02T15:19:24.001Z,101244.25
2022-08-02T15:21:55.995Z,101183.50
2022-08-02T15:24:23.898Z,101229.84
2022-08-02T15:26:50.751Z,101176.91
2022-08-02T15:29:18.296Z,101247.56
2022-08-02T15:31:44.924Z,101257.03
2022-08-02T15:34:13.298Z,101251.44
2022-08-02T15:36:40.071Z,101254.38
2022-08-02T15:39:06.670Z,101179.19
2022-08-02T15:41:33.064Z,101241.09
2022-08-02T15:44:01.774Z,101229.63
2022-08-02T15:46:32.247Z,101126.94
2022-08-02T15:48:59.947Z,101207.56
2022-08-02T15:51:26.947Z,101252.34
2022-08-02T15:53:53.491Z,101210.13
2022-08-02T15:56:24.051Z,101181.25
2022-08-02T15:58:51.683Z,101190.03
2022-08-02T16:01:19.686Z,101194.66
2022-08-02T16:03:46.213Z,101219.13
2022-08-02T16:06:15.085Z,101243.09
2022-08-02T16:08:53.700Z,101227.16
2022-08-02T16:11:21.292Z,101236.22
2022-08-02T16:13:53.839Z,101234.78
2022-08-02T16:16:22.984Z,101233.22
2022-08-02T16:18:49.617Z,101196.69
2022-08-02T16:21:16.202Z,101230.09
2022-08-02T16:23:58.559Z,101218.00
2022-08-02T16:26:29.576Z,101171.34
2022-08-02T16:28:56.900Z,101261.09
2022-08-02T16:31:23.851Z,101238.63
2022-08-02T16:33:50.397Z,101233.31
2022-08-02T16:36:22.652Z,101238.50
2022-08-02T16:38:49.063Z,101093.41
2022-08-02T16:41:16.362Z,101193.72
2022-08-02T16:43:42.887Z,101232.59
2022-08-02T16:46:09.970Z,101229.50
2022-08-02T16:48:39.190Z,101234.31
2022-08-02T16:51:13.478Z,101209.84
2022-08-02T16:54:00.555Z,101224.31
2022-08-02T16:56:30.666Z,101227.66
2022-08-02T16:58:59.909Z,101229.50
2022-08-02T17:01:28.096Z,101237.56
2022-08-02T17:04:14.502Z,101207.59
2022-08-02T17:06:47.860Z,101025.34
2022-08-02T17:10:03.410Z,101159.69
2022-08-02T17:12:05.861Z,101207.22
2022-08-02T17:14:42.108Z,101224.28
2022-08-02T17:17:33.760Z,101204.97
2022-08-02T17:20:01.151Z,101143.41
2022-08-02T17:22:27.545Z,101181.44
2022-08-02T17:24:56.646Z,101230.19
2022-08-02T17:27:28.147Z,101234.50
2022-08-02T17:29:55.752Z,101089.72
2022-08-02T17:32:22.394Z,101163.47
2022-08-02T17:37:41.965Z,101022.94
2022-08-02T17:40:11.673Z,101245.16
2022-08-02T17:42:38.327Z,101123.81
2022-08-02T17:45:16.818Z,100547.13
2022-08-02T17:50:48.631Z,101187.63
2022-08-02T17:53:15.485Z,101235.75
2022-08-02T17:55:42.762Z,101181.91
2022-08-02T17:58:12.579Z,101210.63
2022-08-02T18:00:39.262Z,101201.63
2022-08-02T18:03:07.879Z,101211.78
2022-08-02T18:05:40.023Z,101049.22
2022-08-02T18:08:08.473Z,101210.91
2022-08-02T18:10:35.017Z,101184.72
2022-08-02T18:13:02.315Z,101204.25
2022-08-02T18:15:30.327Z,101198.03
2022-08-02T18:17:59.024Z,101104.03
2022-08-02T18:20:25.403Z,101190.66
2022-08-02T18:22:55.468Z,101221.56
2022-08-02T18:25:37.479Z,101157.19
2022-08-02T18:28:11.613Z,101207.28
2022-08-02T18:30:38.220Z,101228.31
2022-08-02T18:33:57.053Z,101177.47
2022-08-02T18:35:52.329Z,101206.38
2022-08-02T18:38:22.154Z,101219.84
2022-08-02T18:40:50.818Z,101224.13
2022-08-02T18:43:17.717Z,101246.19
2022-08-02T18:46:07.347Z,101135.06
2022-08-02T18:48:30.971Z,101208.50
2022-08-02T18:50:57.482Z,101200.25
2022-08-02T18:53:39.524Z,101220.63
2022-08-02T18:56:19.969Z,101262.66
2022-08-02T18:58:54.529Z,101279.34
2022-08-02T19:01:46.911Z,101283.53
2022-08-02T19:04:27.794Z,101281.16
2022-08-02T19:06:55.013Z,101132.09
2022-08-02T19:09:21.542Z,101223.38
2022-08-02T19:11:50.117Z,101302.56
2022-08-02T19:14:27.534Z,101253.41
2022-08-02T19:16:56.232Z,101225.69
2022-08-02T19:19:23.404Z,101265.50
2022-08-02T19:22:18.945Z,101286.03
2022-08-02T19:24:43.136Z,101284.97
2022-08-02T19:27:13.869Z,101215.81
2022-08-02T19:29:48.392Z,101304.78
2022-08-02T19:32:42.983Z,101311.13
2022-08-02T19:35:19.613Z,101320.50
2022-08-02T19:37:53.479Z,101286.03
2022-08-02T19:40:24.330Z,101270.03
2022-08-02T19:44:24.790Z,101324.34
2022-08-02T19:45:50.168Z,101306.59
2022-08-02T19:48:24.255Z,101341.84
2022-08-02T19:51:01.007Z,101339.44
2022-08-02T19:53:46.704Z,101291.44
2022-08-02T19:56:20.300Z,101333.81
2022-08-02T19:58:48.792Z,101274.41
2022-08-02T20:01:16.816Z,101299.16
2022-08-02T20:03:52.163Z,101289.41
2022-08-02T20:06:19.866Z,101261.72
2022-08-02T20:08:59.236Z,101206.88
2022-08-02T20:11:27.609Z,101340.00
2022-08-02T20:13:54.536Z,101283.22
2022-08-02T20:16:27.675Z,101282.59
2022-08-02T20:19:07.761Z,101248.19
2022-08-02T20:21:35.639Z,101144.22
2022-08-02T20:24:07.601Z,101300.47
2022-08-02T20:26:35.372Z,101317.09
2022-08-02T20:29:03.419Z,101304.06
2022-08-02T20:31:30.356Z,101274.19
2022-08-02T20:33:57.095Z,101340.09
2022-08-02T20:36:25.015Z,101220.78
2022-08-02T20:38:55.135Z,101311.63
2022-08-02T20:41:37.101Z,101206.78
2022-08-02T20:44:15.647Z,101214.25
2022-08-02T20:46:56.658Z,101293.09
2022-08-02T20:49:40.297Z,101285.53
2022-08-02T20:52:23.097Z,101275.72
2022-08-02T20:54:51.137Z,101287.53
2022-08-02T20:57:17.541Z,101251.00
2022-08-02T20:59:43.998Z,101287.56
2022-08-02T21:02:18.817Z,101234.41
2022-08-02T21:04:46.811Z,101223.03
2022-08-02T21:07:13.395Z,101324.16
2022-08-02T21:09:53.604Z,101294.63
2022-08-02T21:12:31.195Z,101266.22
2022-08-02T21:14:57.725Z,101312.38
2022-08-02T21:17:27.534Z,101318.00
2022-08-02T21:20:10.857Z,101241.44
2022-08-02T21:22:37.596Z,101267.66
2022-08-02T21:25:08.926Z,101310.56
2022-08-02T21:27:53.255Z,101251.03
2022-08-02T21:30:21.393Z,101298.47
2022-08-02T21:32:52.949Z,101239.34
2022-08-02T21:35:19.336Z,101229.94
2022-08-02T21:37:47.391Z,101278.34
2022-08-02T21:40:14.176Z,101259.31
2022-08-02T21:42:40.793Z,101234.28
2022-08-02T21:45:16.889Z,101298.44
2022-08-02T21:47:44.619Z,101153.63
2022-08-02T21:50:13.500Z,101301.69
2022-08-02T21:52:42.391Z,101300.81
2022-08-02T21:55:21.233Z,101270.59
2022-08-02T21:57:50.432Z,101267.75
2022-08-02T22:00:16.990Z,101256.13
2022-08-02T22:02:55.256Z,101206.81
2022-08-02T22:05:21.845Z,101221.31
2022-08-02T22:07:48.389Z,101292.72
2022-08-02T22:10:17.333Z,101295.91
2022-08-02T22:12:43.770Z,101193.78
2022-08-02T22:15:11.527Z,101214.34
2022-08-02T22:17:53.417Z,101261.50
2022-08-02T22:20:26.217Z,101277.81
2022-08-02T22:22:58.773Z,101224.00
2022-08-02T22:25:36.539Z,101289.47
2022-08-02T22:28:36.023Z,101274.78
2022-08-02T22:30:53.210Z,101298.19
2022-08-02T22:33:42.000Z,101299.16
2022-08-02T22:36:09.249Z,101260.56
2022-08-02T22:38:38.222Z,101260.84
2022-08-02T22:41:05.846Z,101300.47
2022-08-02T22:43:35.626Z,101308.25
2022-08-02T22:46:04.714Z,101300.66
2022-08-02T22:48:35.802Z,101216.03
2022-08-02T22:51:06.678Z,101203.09
2022-08-02T22:53:35.746Z,101221.00
2022-08-02T22:56:04.003Z,101262.06
2022-08-02T22:58:31.195Z,101279.13
2022-08-02T22:58:48.715Z,101223.53
2022-08-02T23:00:58.498Z,101233.09
2022-08-02T23:03:25.036Z,101209.38
2022-08-02T23:05:53.257Z,101274.09
2022-08-02T23:08:22.545Z,101285.94
2022-08-02T23:10:49.241Z,101289.13
2022-08-02T23:13:15.695Z,101260.31
2022-08-02T23:16:01.228Z,101206.22
2022-08-02T23:18:46.744Z,101284.84
2022-08-02T23:21:13.389Z,101188.03
2022-08-02T23:23:55.543Z,101210.31
2022-08-02T23:26:21.888Z,101210.69
2022-08-02T23:28:48.354Z,101202.06
2022-08-02T23:31:38.057Z,101218.19
2022-08-02T23:34:05.740Z,101084.03
2022-08-02T23:36:32.625Z,101167.50
2022-08-02T23:38:59.804Z,101083.28
2022-08-02T23:41:26.865Z,101229.63
2022-08-02T23:44:12.513Z,101269.53
2022-08-02T23:46:45.000Z,101178.69
2022-08-02T23:49:12.657Z,101269.53
2022-08-02T23:51:39.203Z,101264.19
2022-08-02T23:54:05.757Z,101127.81
2022-08-02T23:56:32.152Z,101118.63
2022-08-02T23:58:58.544Z,101191.19
